台北 の空港の天気 - METARとTAF

台湾桃園国際空港 ( RCTP / TPE ) - 台湾 台北市
飛行場実況気象(Metar)
観測時間10/21 00:00 CST (10/20 16:00 UTC)
風向・風速北東 4m/s
視程10km以上
天気現象
なし
気温20℃
湿度83%
気圧1019hPa
METARRCTP 201600Z 05008KT CAVOK 20/17 Q1019 NOSIG RMK A3011
過去の天気等 Google飛行場航空写真 Wunderground天気予報

過去48時間のMETAR

飛行場予報(TAF)
発表時間: 10/20 19:00 CST (10/20 11:00 UTC)
予報対象時間: 20日20時 CST ~ 22日2時 CST
風向・風速北東 8m/s
視程10km以上
少しの雲 雲底高度 610m
全天の8割程度の雲 雲底高度 980m
全天の8割程度の雲 雲底高度 2440m
20日20時 CST ~ 20日22時 CST に徐々に
風向・風速東 6m/s
21日2時 CST ~ 21日8時 CST に一時的に
風向・風速東 3m/s
全天の4割程度の雲 雲底高度 240m
全天の8割程度の雲 雲底高度 460m
全天の8割程度の雲 雲底高度 910m
21日8時 CST ~ 21日10時 CST に徐々に
風向・風速北東 7m/s
21日18時 CST ~ 21日20時 CST に徐々に
風向・風速東 5m/s
TAF RCTP 201100Z 2012/2118 05016KT 9999 FEW020 BKN032 BKN080
BECMG 2012/2014 08012KT
TEMPO 2018/2024 09006KT SCT008 BKN015 BKN030
BECMG 2100/2102 05014KT
BECMG 2110/2112 09010KT